Time;durP1;ratioP1;P1;durP2;ratioP2;P2;SDS_P1;SDS_P2;PMS_P1;PMS_P2;Temp;Humidity;BMP_temperature;BMP_pressure;BME280_temperature;BME280_humidity;BME280_pressure;Samples;Min_cycle;Max_cycle;Signal;HPM_P1;HPM_P2
2021/04/17 00:00:09;;;;;;;7.60;6.80;;;30.20;94.50;;;;;;4954144;29;20253;-48
2021/04/17 00:02:39;;;;;;;7.05;6.35;;;30.20;94.70;;;;;;4953472;29;20201;-52
2021/04/17 00:05:11;;;;;;;8.70;6.85;;;30.20;94.80;;;;;;4952902;29;20224;-52
2021/04/17 00:07:43;;;;;;;8.05;7.25;;;30.30;94.90;;;;;;4953676;29;20619;-53
2021/04/17 00:10:14;;;;;;;8.25;7.45;;;30.40;95.10;;;;;;4952448;29;20198;-50
2021/04/17 00:12:44;;;;;;;8.20;7.05;;;30.40;95.20;;;;;;4953639;29;20206;-54
2021/04/17 00:15:15;;;;;;;8.20;7.07;;;30.40;95.20;;;;;;4952753;29;20216;-53
2021/04/17 00:17:45;;;;;;;7.22;6.25;;;30.50;95.30;;;;;;4952735;29;20661;-50
2021/04/17 00:20:16;;;;;;;8.10;6.30;;;30.60;95.40;;;;;;4953740;29;20557;-52
2021/04/17 00:22:48;;;;;;;7.13;5.40;;;30.60;95.50;;;;;;4953192;29;20712;-52
2021/04/17 00:25:18;;;;;;;6.25;5.07;;;30.70;95.50;;;;;;4952998;29;20288;-52
2021/04/17 00:27:49;;;;;;;5.32;4.82;;;30.70;95.50;;;;;;4951882;29;20209;-52
2021/04/17 00:30:20;;;;;;;4.78;4.38;;;30.80;95.60;;;;;;4952334;29;20301;-52
2021/04/17 00:32:50;;;;;;;4.65;4.25;;;30.90;95.60;;;;;;4952806;29;20209;-52
2021/04/17 00:35:20;;;;;;;4.45;4.05;;;30.90;95.50;;;;;;4952784;29;20197;-51
2021/04/17 00:37:52;;;;;;;4.80;4.07;;;31.00;95.40;;;;;;4952906;28;20331;-50
2021/04/17 00:40:22;;;;;;;4.82;4.28;;;31.10;95.40;;;;;;4951270;29;20233;-50
2021/04/17 00:42:52;;;;;;;5.05;4.05;;;31.10;95.30;;;;;;4952945;29;20208;-52
2021/04/17 00:45:22;;;;;;;5.13;4.18;;;31.30;95.20;;;;;;4953158;29;20320;-49
2021/04/17 00:47:52;;;;;;;4.60;4.18;;;31.30;95.00;;;;;;4952972;29;20197;-54
2021/04/17 00:50:24;;;;;;;5.15;4.65;;;31.40;95.00;;;;;;4952226;29;20278;-53
2021/04/17 00:52:58;;;;;;;4.22;3.92;;;31.50;94.80;;;;;;4953646;29;20209;-53
2021/04/17 00:55:28;;;;;;;4.57;4.10;;;31.50;94.70;;;;;;4953769;29;20205;-53
2021/04/17 00:57:59;;;;;;;4.90;4.40;;;31.60;94.50;;;;;;4953637;29;20252;-51
2021/04/17 01:00:32;;;;;;;4.53;4.13;;;31.70;94.30;;;;;;4952651;29;20218;-52
2021/04/17 01:03:05;;;;;;;4.88;3.90;;;31.70;94.50;;;;;;4953415;29;20212;-54
2021/04/17 01:05:35;;;;;;;4.38;4.07;;;31.80;93.90;;;;;;4954610;29;20553;-48
2021/04/17 01:08:08;;;;;;;4.43;3.65;;;31.90;93.70;;;;;;4953777;29;20284;-49
2021/04/17 01:10:40;;;;;;;4.07;3.78;;;31.90;93.40;;;;;;4953789;29;20198;-49
2021/04/17 01:13:10;;;;;;;4.45;4.15;;;32.00;93.40;;;;;;4856629;29;20221;-52
2021/04/17 01:15:40;;;;;;;4.82;4.03;;;32.10;93.40;;;;;;4856919;29;20224;-49
2021/04/17 01:18:11;;;;;;;4.60;4.20;;;32.20;93.20;;;;;;4857592;29;20784;-51
2021/04/17 01:20:43;;;;;;;4.57;4.18;;;32.20;92.80;;;;;;4855991;29;20229;-50
2021/04/17 01:23:18;;;;;;;4.32;3.92;;;32.30;92.20;;;;;;4855604;29;20287;-51
2021/04/17 01:25:51;;;;;;;4.60;4.18;;;32.30;92.20;;;;;;4856380;29;20264;-50
2021/04/17 01:28:21;;;;;;;4.40;4.00;;;32.40;92.00;;;;;;4856775;29;20227;-52
2021/04/17 01:30:53;;;;;;;4.82;4.20;;;32.40;92.00;;;;;;4819201;29;20215;-52
2021/04/17 01:33:25;;;;;;;3.65;3.35;;;32.50;92.00;;;;;;4819309;29;20225;-51
2021/04/17 01:35:55;;;;;;;9.52;8.73;;;32.60;91.90;;;;;;4819958;29;20218;-49
2021/04/17 01:38:26;;;;;;;5.22;4.82;;;32.60;91.70;;;;;;4848034;29;20213;-49
2021/04/17 01:41:09;;;;;;;4.90;4.50;;;32.60;90.80;;;;;;4856341;29;20237;-55
2021/04/17 01:43:46;;;;;;;4.68;4.28;;;32.70;89.70;;;;;;4872341;29;20214;-56
2021/04/17 01:46:17;;;;;;;4.53;4.13;;;32.70;90.50;;;;;;4912591;29;20833;-54
2021/04/17 01:48:51;;;;;;;4.35;3.95;;;32.80;90.50;;;;;;4913058;29;20228;-56
2021/04/17 01:51:22;;;;;;;4.35;4.05;;;32.80;90.50;;;;;;4915428;29;20211;-54
2021/04/17 07:28:36;;;;;;;5.15;4.68;;;35.70;76.70;;;;;;2895272;23;20308;-51
2021/04/17 07:31:07;;;;;;;6.13;5.60;;;35.70;77.30;;;;;;4999895;28;20199;-53
2021/04/17 07:33:38;;;;;;;5.50;5.10;;;35.70;76.60;;;;;;5007862;28;20283;-53
2021/04/17 07:36:09;;;;;;;6.03;5.53;;;35.70;76.90;;;;;;5008065;28;20250;-57
2021/04/17 07:38:40;;;;;;;6.20;5.70;;;35.80;77.20;;;;;;5009247;28;20562;-53
2021/04/17 07:41:11;;;;;;;6.18;5.68;;;35.80;76.60;;;;;;5006980;28;20645;-55
2021/04/17 07:43:50;;;;;;;6.20;5.70;;;35.90;75.70;;;;;;5006373;28;20203;-53
2021/04/17 07:46:22;;;;;;;5.82;5.35;;;35.90;74.80;;;;;;5007545;28;20274;-54
2021/04/17 07:48:53;;;;;;;6.07;5.43;;;36.00;74.10;;;;;;5006653;28;20242;-50
2021/04/17 07:51:23;;;;;;;7.47;6.85;;;36.00;74.30;;;;;;5009417;28;20572;-52
2021/04/17 07:53:54;;;;;;;6.18;5.68;;;36.10;74.60;;;;;;5009424;28;20558;-56
2021/04/17 07:56:34;;;;;;;6.03;5.40;;;36.10;74.50;;;;;;5008871;28;20229;-51
2021/04/17 07:59:06;;;;;;;6.00;5.50;;;36.10;73.70;;;;;;5009645;28;20204;-55
2021/04/17 08:01:37;;;;;;;6.82;6.22;;;36.10;73.30;;;;;;5009533;28;20256;-55
2021/04/17 08:04:07;;;;;;;7.68;7.00;;;36.10;73.00;;;;;;5009719;28;20211;-55
2021/04/17 08:06:40;;;;;;;6.35;5.50;;;36.10;72.00;;;;;;5009004;28;20216;-49
2021/04/17 08:09:16;;;;;;;6.32;5.82;;;36.10;72.30;;;;;;5009248;28;20200;-51
2021/04/17 08:11:47;;;;;;;6.47;5.88;;;36.10;72.10;;;;;;5009044;28;20320;-51
2021/04/17 08:14:19;;;;;;;6.38;5.70;;;36.10;72.10;;;;;;5009293;28;20493;-52
2021/04/17 08:16:50;;;;;;;5.95;5.45;;;36.20;72.10;;;;;;5008595;28;20615;-52
2021/04/17 08:19:20;;;;;;;6.97;6.20;;;36.30;72.50;;;;;;5009336;28;20196;-50
2021/04/17 08:21:51;;;;;;;6.43;5.88;;;36.40;72.00;;;;;;5009070;28;20318;-50
2021/04/17 08:24:25;;;;;;;6.30;5.70;;;36.50;72.50;;;;;;5009407;28;20207;-53
2021/04/17 08:26:56;;;;;;;6.28;5.70;;;36.60;71.30;;;;;;5007949;28;20358;-54
2021/04/17 08:29:51;;;;;;;5.63;5.15;;;36.60;71.20;;;;;;5008953;28;20320;-55
2021/04/17 08:32:32;;;;;;;7.05;6.10;;;36.70;69.20;;;;;;5008515;28;20257;-54
2021/04/17 08:35:12;;;;;;;6.88;6.20;;;36.80;69.30;;;;;;5008466;28;20202;-54
2021/04/17 08:38:11;;;;;;;5.75;5.25;;;36.80;69.40;;;;;;5004073;28;20270;-53
2021/04/17 08:40:42;;;;;;;5.55;5.15;;;36.90;70.10;;;;;;5003780;28;20273;-52
2021/04/17 08:43:37;;;;;;;5.25;4.75;;;36.90;70.00;;;;;;5008703;28;20293;-54
2021/04/17 08:46:15;;;;;;;4.93;4.60;;;37.00;70.70;;;;;;4995807;28;20293;-51
2021/04/17 08:48:53;;;;;;;5.95;5.35;;;37.00;71.10;;;;;;5008751;28;20214;-52
2021/04/17 08:51:36;;;;;;;5.78;5.28;;;37.10;69.40;;;;;;5009441;28;20198;-52
2021/04/17 08:54:19;;;;;;;6.22;5.72;;;37.10;68.50;;;;;;4996847;28;20200;-54
2021/04/17 08:56:52;;;;;;;6.85;5.22;;;37.00;67.40;;;;;;5009478;28;20250;-50
2021/04/17 08:59:23;;;;;;;5.97;5.45;;;37.00;68.70;;;;;;5008996;28;20263;-55
2021/04/17 09:01:57;;;;;;;5.80;5.30;;;37.00;69.20;;;;;;5008189;28;20211;-53
2021/04/17 09:04:28;;;;;;;6.43;5.82;;;37.00;68.50;;;;;;5009054;28;20198;-51
2021/04/17 09:06:59;;;;;;;6.43;5.82;;;37.10;68.20;;;;;;5009327;28;20211;-51
2021/04/17 09:09:33;;;;;;;6.13;5.50;;;37.00;68.00;;;;;;5009246;28;20199;-52
2021/04/17 09:12:22;;;;;;;6.40;5.80;;;37.00;68.20;;;;;;5008038;28;20233;-53
2021/04/17 09:15:02;;;;;;;6.07;5.57;;;37.00;68.20;;;;;;5009776;28;20230;-52
2021/04/17 09:17:48;;;;;;;7.28;6.22;;;37.00;68.50;;;;;;5009644;28;20226;-56
2021/04/17 09:20:39;;;;;;;6.65;6.15;;;37.00;68.00;;;;;;5008782;28;20211;-50
2021/04/17 09:23:10;;;;;;;5.30;4.90;;;37.00;68.90;;;;;;5009494;28;20635;-50
2021/04/17 09:25:45;;;;;;;5.47;5.07;;;37.00;69.90;;;;;;5009137;28;20207;-55
2021/04/17 09:28:16;;;;;;;4.95;4.55;;;37.00;70.40;;;;;;5008371;28;20247;-50
2021/04/17 09:30:51;;;;;;;4.78;4.38;;;37.10;70.70;;;;;;5008935;28;20194;-50
2021/04/17 09:33:24;;;;;;;4.45;4.15;;;37.20;70.50;;;;;;4964883;28;20275;-55
2021/04/17 09:35:55;;;;;;;4.38;4.07;;;37.30;70.70;;;;;;4957905;28;20449;-53
2021/04/17 09:38:33;;;;;;;4.30;3.90;;;37.50;69.80;;;;;;4965270;28;20216;-55
2021/04/17 09:41:04;;;;;;;3.50;3.17;;;37.60;68.30;;;;;;4951748;28;20699;-49
2021/04/17 09:43:35;;;;;;;3.22;2.92;;;37.70;67.00;;;;;;4966859;28;20232;-55
2021/04/17 09:46:07;;;;;;;3.70;3.40;;;37.70;65.70;;;;;;4968084;28;20236;-55
2021/04/17 09:48:41;;;;;;;3.50;3.20;;;37.80;65.60;;;;;;4968263;28;20208;-49
2021/04/17 09:51:19;;;;;;;4.43;3.38;;;37.80;65.60;;;;;;4967258;28;20681;-53
2021/04/17 09:53:49;;;;;;;3.85;3.55;;;37.80;66.00;;;;;;4967447;28;20216;-51
2021/04/17 09:56:28;;;;;;;4.22;3.80;;;37.70;66.50;;;;;;4967671;28;20212;-56
2021/04/17 09:58:58;;;;;;;4.30;3.95;;;37.70;67.40;;;;;;4967324;28;20205;-50
2021/04/17 10:01:28;;;;;;;3.92;3.63;;;37.70;67.60;;;;;;4967729;28;20290;-53
2021/04/17 10:04:00;;;;;;;6.70;4.00;;;37.60;67.90;;;;;;4983446;28;20726;-56
2021/04/17 10:06:31;;;;;;;5.22;3.67;;;37.60;67.90;;;;;;5009378;28;20222;-53
2021/04/17 10:09:15;;;;;;;4.72;4.20;;;37.60;68.10;;;;;;5009220;28;20200;-55
2021/04/17 10:11:45;;;;;;;4.35;3.95;;;37.60;67.80;;;;;;5011046;28;20210;-54
2021/04/17 10:14:16;;;;;;;3.63;3.33;;;37.60;67.80;;;;;;5012687;28;20227;-53
2021/04/17 10:16:47;;;;;;;4.00;3.22;;;37.60;67.90;;;;;;5013126;28;20568;-52
2021/04/17 10:19:19;;;;;;;4.38;3.97;;;37.50;68.20;;;;;;5012665;28;20211;-54
2021/04/17 10:21:56;;;;;;;4.20;3.90;;;37.50;68.70;;;;;;5011557;28;20307;-55
2021/04/17 10:24:27;;;;;;;6.07;4.60;;;37.50;68.40;;;;;;5012754;28;20616;-54
2021/04/17 10:27:04;;;;;;;4.70;4.30;;;37.50;68.30;;;;;;5012358;28;20242;-53
2021/04/17 10:29:45;;;;;;;5.30;4.80;;;37.60;68.30;;;;;;5012177;28;20235;-49
2021/04/17 10:32:17;;;;;;;4.80;4.40;;;37.60;68.30;;;;;;5012481;28;20246;-54
2021/04/17 10:34:50;;;;;;;4.90;4.18;;;37.70;69.50;;;;;;5013535;28;20208;-51
2021/04/17 10:37:21;;;;;;;4.35;3.95;;;37.90;69.50;;;;;;5012507;28;20203;-49
2021/04/17 10:40:01;;;;;;;5.57;4.40;;;38.10;69.30;;;;;;5012510;28;20200;-50
2021/04/17 10:42:49;;;;;;;6.00;4.60;;;38.30;68.40;;;;;;4997247;28;20303;-52
2021/04/17 10:45:20;;;;;;;5.22;4.72;;;38.60;68.40;;;;;;5012119;28;20200;-54
2021/04/17 10:48:01;;;;;;;7.47;5.40;;;38.70;67.60;;;;;;5012013;28;20207;-53
2021/04/17 10:50:32;;;;;;;6.00;5.20;;;39.00;66.10;;;;;;5011080;28;20286;-53
2021/04/17 10:53:04;;;;;;;4.63;4.20;;;39.20;64.80;;;;;;5011258;28;20930;-50
2021/04/17 10:55:39;;;;;;;5.90;4.70;;;39.30;65.00;;;;;;5012018;28;20678;-53
2021/04/17 10:58:21;;;;;;;6.10;4.95;;;39.40;63.90;;;;;;5011810;28;20522;-50
2021/04/17 11:00:52;;;;;;;5.35;4.85;;;39.40;63.20;;;;;;5011303;28;20231;-51
2021/04/17 11:03:22;;;;;;;5.25;4.75;;;39.40;63.10;;;;;;5011853;28;20250;-50
2021/04/17 11:05:53;;;;;;;6.32;5.72;;;39.40;63.30;;;;;;5011978;28;20203;-51
2021/04/17 11:08:24;;;;;;;6.32;5.68;;;39.40;63.00;;;;;;5011618;28;20652;-50
2021/04/17 11:10:56;;;;;;;8.40;6.25;;;39.40;62.90;;;;;;5010720;28;20196;-51
2021/04/17 11:13:33;;;;;;;6.70;6.00;;;39.30;62.10;;;;;;5011892;28;20235;-53
2021/04/17 11:16:04;;;;;;;6.20;5.45;;;39.10;62.10;;;;;;5011445;28;20199;-49
2021/04/17 11:18:37;;;;;;;7.53;5.80;;;38.90;62.10;;;;;;5011695;28;20200;-50
2021/04/17 11:21:16;;;;;;;6.15;5.55;;;38.70;62.40;;;;;;5010539;28;20219;-51
2021/04/17 11:23:48;;;;;;;8.25;6.43;;;38.50;63.30;;;;;;5010645;28;20195;-50
2021/04/17 11:26:20;;;;;;;8.07;6.70;;;38.30;64.00;;;;;;5011438;28;20207;-52
2021/04/17 11:28:50;;;;;;;9.30;8.25;;;38.10;64.40;;;;;;5011357;28;20607;-50
2021/04/17 11:31:21;;;;;;;11.68;9.00;;;37.90;64.80;;;;;;5010112;28;20196;-53
2021/04/17 11:33:53;;;;;;;10.85;9.43;;;37.60;64.60;;;;;;5010998;28;20685;-51
2021/04/17 11:36:25;;;;;;;13.55;10.48;;;37.40;65.10;;;;;;5011041;28;20556;-54
2021/04/17 11:38:55;;;;;;;11.15;8.65;;;37.30;65.60;;;;;;5011104;28;20204;-52
2021/04/17 11:41:26;;;;;;;9.15;7.63;;;37.10;65.80;;;;;;5010806;28;20234;-53
2021/04/17 11:43:56;;;;;;;7.85;6.47;;;36.90;65.90;;;;;;5010842;28;20204;-54
2021/04/17 11:46:27;;;;;;;9.75;8.82;;;36.80;66.20;;;;;;5011269;28;20593;-56
2021/04/17 11:48:57;;;;;;;7.78;6.80;;;36.60;66.60;;;;;;5010758;28;20568;-54
2021/04/17 11:51:29;;;;;;;7.72;6.93;;;36.50;67.20;;;;;;5010801;28;20199;-52
2021/04/17 11:53:59;;;;;;;8.30;7.50;;;36.30;67.70;;;;;;5009907;28;20195;-54
2021/04/17 11:56:29;;;;;;;8.23;7.43;;;36.20;68.20;;;;;;5010997;28;20208;-55
2021/04/17 11:58:59;;;;;;;6.85;6.22;;;36.10;68.60;;;;;;5010836;28;20208;-53
2021/04/17 12:01:30;;;;;;;7.25;6.05;;;36.00;69.00;;;;;;5010298;28;20223;-53
2021/04/17 12:04:00;;;;;;;6.93;5.30;;;35.90;69.40;;;;;;5010252;28;20294;-51
2021/04/17 12:06:31;;;;;;;5.15;4.68;;;35.80;69.90;;;;;;5010575;28;20242;-56
2021/04/17 12:09:03;;;;;;;5.50;5.00;;;35.70;70.20;;;;;;5010479;28;20203;-49
2021/04/17 12:11:33;;;;;;;4.93;4.53;;;35.60;70.60;;;;;;5010308;28;20195;-56
2021/04/17 12:14:04;;;;;;;5.20;4.55;;;35.50;70.80;;;;;;5009964;28;20295;-54
2021/04/17 12:16:34;;;;;;;4.90;4.40;;;35.40;71.10;;;;;;5009135;28;20298;-53
2021/04/17 12:19:05;;;;;;;4.90;4.50;;;35.40;71.40;;;;;;5010256;28;20618;-53
2021/04/17 12:21:36;;;;;;;5.00;4.43;;;35.30;71.60;;;;;;5009302;28;20208;-54
2021/04/17 12:24:07;;;;;;;5.43;4.93;;;35.30;72.00;;;;;;5010096;28;20844;-54
2021/04/17 12:26:37;;;;;;;4.95;4.55;;;35.20;72.30;;;;;;5009399;28;20205;-52
2021/04/17 12:29:07;;;;;;;4.43;4.03;;;35.10;72.40;;;;;;4995773;28;20247;-55
2021/04/17 12:31:38;;;;;;;4.97;4.47;;;35.00;72.60;;;;;;5010396;28;20214;-53
2021/04/17 12:34:09;;;;;;;5.43;4.28;;;34.90;72.80;;;;;;5009636;28;20203;-50
2021/04/17 12:36:41;;;;;;;5.50;4.50;;;34.90;73.10;;;;;;5010338;28;20689;-51
2021/04/17 12:39:11;;;;;;;4.55;4.20;;;34.80;73.60;;;;;;5009381;28;20242;-50
2021/04/17 12:41:41;;;;;;;5.40;4.50;;;34.70;73.70;;;;;;5010013;28;20231;-49
2021/04/17 12:44:12;;;;;;;8.63;4.82;;;34.60;73.90;;;;;;5010660;28;20845;-54
2021/04/17 12:46:42;;;;;;;5.38;4.88;;;34.50;74.10;;;;;;5009890;28;20208;-51
2021/04/17 12:49:13;;;;;;;5.55;5.03;;;34.50;74.50;;;;;;5008556;28;20211;-54
2021/04/17 12:51:44;;;;;;;5.97;5.32;;;34.40;74.60;;;;;;5009868;28;20199;-49
2021/04/17 12:54:15;;;;;;;5.28;4.78;;;34.40;74.90;;;;;;5009534;28;20211;-51
2021/04/17 12:56:45;;;;;;;5.25;4.75;;;34.30;75.00;;;;;;5009152;28;20195;-50
2021/04/17 12:59:15;;;;;;;5.35;4.85;;;34.20;75.40;;;;;;5008778;28;20886;-51
2021/04/17 13:01:46;;;;;;;5.95;5.40;;;34.20;75.60;;;;;;5008955;28;20233;-51
2021/04/17 13:04:16;;;;;;;5.57;5.07;;;34.20;76.00;;;;;;5009603;28;20211;-53
2021/04/17 13:06:47;;;;;;;5.60;5.10;;;34.10;76.00;;;;;;5009251;28;20219;-52
2021/04/17 13:09:18;;;;;;;5.93;5.43;;;34.10;76.40;;;;;;5009437;28;20203;-49
2021/04/17 13:11:48;;;;;;;5.90;5.13;;;34.00;76.40;;;;;;5008577;28;20217;-51
2021/04/17 13:14:20;;;;;;;6.10;5.50;;;34.00;76.60;;;;;;5009421;28;20269;-50
2021/04/17 13:16:54;;;;;;;7.57;6.47;;;33.90;76.70;;;;;;5009291;28;20655;-53
2021/04/17 13:19:26;;;;;;;8.68;6.60;;;33.90;76.90;;;;;;5009254;28;20199;-50
2021/04/17 13:21:57;;;;;;;9.23;7.32;;;33.80;77.00;;;;;;5008690;28;20906;-55
2021/04/17 13:24:27;;;;;;;8.93;7.13;;;33.80;77.40;;;;;;4994878;28;20199;-51
2021/04/17 13:26:57;;;;;;;8.07;7.28;;;33.70;77.40;;;;;;5009054;28;20235;-51
2021/04/17 13:29:28;;;;;;;6.90;6.18;;;33.70;77.50;;;;;;5009157;28;20264;-55
2021/04/17 13:31:58;;;;;;;7.80;7.07;;;33.70;77.60;;;;;;5009119;28;20243;-54
2021/04/17 13:34:29;;;;;;;6.70;6.10;;;33.60;78.70;;;;;;5008385;28;20203;-55
2021/04/17 13:37:01;;;;;;;6.45;5.80;;;33.60;78.00;;;;;;5019065;28;20206;-52
2021/04/17 13:39:32;;;;;;;7.18;6.57;;;33.60;78.30;;;;;;5009066;28;20624;-53
2021/04/17 13:42:02;;;;;;;7.38;6.68;;;33.60;78.30;;;;;;5008507;28;20599;-51
2021/04/17 13:44:33;;;;;;;6.72;5.90;;;33.50;78.40;;;;;;5007412;28;20196;-50
2021/04/17 13:47:04;;;;;;;6.90;6.30;;;33.50;78.50;;;;;;5008996;28;20195;-51
2021/04/17 13:49:34;;;;;;;7.18;6.47;;;33.50;78.70;;;;;;5012696;28;20266;-53
2021/04/17 13:52:06;;;;;;;7.47;6.85;;;33.40;78.80;;;;;;5012477;28;20562;-54
2021/04/17 13:54:36;;;;;;;7.43;6.70;;;33.40;79.10;;;;;;5011934;28;20195;-52
2021/04/17 13:57:07;;;;;;;7.00;6.40;;;33.40;79.10;;;;;;5011792;28;20290;-49
2021/04/17 13:59:37;;;;;;;6.75;5.97;;;33.40;79.20;;;;;;5012135;28;20191;-51
2021/04/17 14:02:08;;;;;;;7.53;6.40;;;33.30;79.20;;;;;;5012039;28;20218;-49
2021/04/17 14:04:38;;;;;;;6.63;5.93;;;33.30;79.40;;;;;;5012086;28;20303;-49
2021/04/17 14:07:09;;;;;;;6.45;5.85;;;33.30;79.60;;;;;;5011346;28;20225;-51
2021/04/17 14:09:39;;;;;;;6.22;5.32;;;33.20;79.80;;;;;;5011958;28;20282;-51
2021/04/17 14:12:10;;;;;;;6.18;5.25;;;33.20;79.80;;;;;;5011860;28;20414;-52
2021/04/17 14:14:41;;;;;;;7.55;6.15;;;33.20;80.00;;;;;;5009600;28;20646;-50
2021/04/17 14:17:11;;;;;;;6.90;5.85;;;33.20;80.10;;;;;;5011495;28;20191;-51
2021/04/17 14:19:42;;;;;;;5.68;5.15;;;33.10;80.20;;;;;;5011819;28;20200;-51
2021/04/17 14:22:14;;;;;;;6.80;6.25;;;33.10;80.30;;;;;;5011615;28;20266;-53
2021/04/17 14:24:44;;;;;;;6.82;6.07;;;33.00;80.40;;;;;;5011779;28;20563;-52
2021/04/17 14:27:14;;;;;;;12.23;11.10;;;33.00;80.50;;;;;;5011593;28;20219;-52
2021/04/17 14:29:45;;;;;;;29.02;26.25;;;33.00;80.70;;;;;;5010417;28;20245;-53
2021/04/17 14:32:15;;;;;;;31.15;27.85;;;33.00;80.80;;;;;;5011750;28;20195;-54
2021/04/17 14:34:45;;;;;;;20.75;18.75;;;33.00;80.80;;;;;;5011390;28;20199;-53
2021/04/17 14:37:17;;;;;;;11.88;10.75;;;32.90;81.00;;;;;;5011299;28;20330;-51
2021/04/17 14:39:47;;;;;;;9.52;8.63;;;32.90;81.20;;;;;;5010912;28;20196;-54
2021/04/17 14:42:18;;;;;;;7.88;7.07;;;32.90;81.10;;;;;;5010839;28;20219;-52
2021/04/17 14:44:48;;;;;;;7.78;6.82;;;32.90;81.10;;;;;;5011514;28;20614;-51
2021/04/17 14:47:18;;;;;;;7.70;6.97;;;32.80;81.30;;;;;;5011233;28;20227;-52
2021/04/17 14:49:49;;;;;;;7.10;6.50;;;32.80;81.30;;;;;;5011426;28;20254;-51
2021/04/17 14:52:20;;;;;;;6.53;5.93;;;32.80;81.50;;;;;;5010621;28;20273;-54
2021/04/17 14:54:51;;;;;;;5.78;5.22;;;32.70;81.70;;;;;;5011176;28;20188;-53
2021/04/17 14:57:21;;;;;;;7.07;6.28;;;32.70;81.80;;;;;;5010334;28;20635;-53
2021/04/17 15:00:12;;;;;;;6.53;5.50;;;32.70;81.90;;;;;;5011007;28;20295;-53
2021/04/17 15:02:43;;;;;;;5.40;4.90;;;32.70;81.90;;;;;;5010869;28;20267;-54
2021/04/17 15:05:13;;;;;;;7.80;6.22;;;32.70;82.10;;;;;;5011157;28;20944;-53
2021/04/17 15:07:45;;;;;;;8.23;7.43;;;32.60;82.20;;;;;;5011215;28;20199;-54
2021/04/17 15:10:16;;;;;;;6.57;5.97;;;32.60;82.40;;;;;;5011134;28;20188;-52
2021/04/17 15:12:46;;;;;;;5.90;5.30;;;32.50;82.40;;;;;;5009809;28;20258;-53
2021/04/17 15:15:16;;;;;;;6.22;5.63;;;32.50;82.50;;;;;;5010584;28;20212;-53
2021/04/17 15:17:47;;;;;;;5.05;4.55;;;32.50;82.60;;;;;;5011012;28;20229;-54
2021/04/17 15:20:18;;;;;;;5.65;5.15;;;32.50;82.60;;;;;;5010913;28;20286;-53
2021/04/17 15:23:04;;;;;;;5.63;5.15;;;32.50;82.70;;;;;;5009606;28;20310;-54
2021/04/17 15:25:35;;;;;;;5.63;5.13;;;32.40;82.90;;;;;;5010982;28;20279;-53
2021/04/17 15:28:06;;;;;;;5.55;5.05;;;32.40;83.00;;;;;;5010684;28;20298;-56
2021/04/17 15:30:37;;;;;;;5.93;5.32;;;32.30;83.00;;;;;;5010461;28;20235;-52
2021/04/17 15:33:09;;;;;;;6.10;5.50;;;32.40;83.10;;;;;;5009675;28;20211;-53
2021/04/17 15:35:42;;;;;;;5.32;4.82;;;32.30;83.20;;;;;;5010413;28;20253;-54
2021/04/17 15:38:14;;;;;;;5.70;5.13;;;32.30;83.60;;;;;;5010180;28;20191;-50
2021/04/17 15:40:44;;;;;;;14.57;11.32;;;32.30;83.70;;;;;;5011155;28;20639;-51
2021/04/17 15:43:15;;;;;;;13.68;11.25;;;32.20;83.50;;;;;;5009934;28;20241;-54
2021/04/17 15:45:45;;;;;;;7.55;6.78;;;32.20;83.70;;;;;;5010549;28;20227;-53
2021/04/17 15:48:15;;;;;;;10.75;8.48;;;32.20;83.70;;;;;;5011009;28;20667;-51
2021/04/17 15:50:46;;;;;;;8.40;6.50;;;32.20;83.80;;;;;;5010459;28;20238;-50
2021/04/17 15:53:17;;;;;;;6.20;5.15;;;32.10;83.80;;;;;;5010770;28;20262;-50
2021/04/17 15:55:47;;;;;;;5.47;4.32;;;32.10;83.90;;;;;;5009472;28;20761;-52
2021/04/17 15:59:08;;;;;;;5.20;4.70;;;32.10;84.10;;;;;;5010527;28;20658;-52
2021/04/17 16:15:34;;;;;;;6.05;5.03;;;31.90;84.60;;;;;;5010186;28;20207;-51
2021/04/17 16:18:05;;;;;;;8.77;6.70;;;31.90;84.80;;;;;;5010257;28;20196;-52
2021/04/17 16:20:36;;;;;;;7.03;6.10;;;31.90;85.10;;;;;;5009662;28;20207;-51
2021/04/17 16:23:07;;;;;;;6.40;5.20;;;31.80;86.00;;;;;;5010050;28;20222;-50
2021/04/17 16:25:42;;;;;;;5.45;4.95;;;31.80;85.10;;;;;;5009906;28;20195;-52
2021/04/17 16:28:13;;;;;;;5.00;4.50;;;31.80;85.40;;;;;;5009222;28;20314;-50
2021/04/17 16:30:43;;;;;;;6.50;5.00;;;31.80;85.40;;;;;;5008726;28;20271;-53
2021/04/17 16:33:14;;;;;;;5.03;4.57;;;31.80;85.40;;;;;;5010254;28;20644;-50
2021/04/17 16:35:45;;;;;;;4.68;4.13;;;31.80;85.50;;;;;;5010064;28;20231;-50
2021/04/17 16:38:15;;;;;;;5.13;4.30;;;31.80;85.60;;;;;;5009826;28;20207;-53
2021/04/17 16:40:47;;;;;;;6.07;4.50;;;31.70;85.60;;;;;;5008778;28;20234;-53
2021/04/17 16:43:17;;;;;;;4.47;4.00;;;31.70;85.80;;;;;;4995941;28;20269;-50
2021/04/17 16:45:47;;;;;;;4.70;4.15;;;31.70;85.90;;;;;;5009957;28;20208;-55
2021/04/17 16:48:18;;;;;;;8.90;6.15;;;31.60;86.00;;;;;;5009708;28;20573;-52
2021/04/17 16:50:48;;;;;;;10.07;7.00;;;31.70;86.00;;;;;;5009847;28;20208;-51
2021/04/17 16:53:19;;;;;;;5.32;4.80;;;31.70;86.20;;;;;;5008947;28;20207;-51
2021/04/17 16:55:50;;;;;;;5.05;4.55;;;31.60;86.00;;;;;;5009537;28;20207;-50
2021/04/17 16:58:20;;;;;;;4.55;4.13;;;31.60;86.00;;;;;;5009432;28;20203;-54
2021/04/17 17:00:51;;;;;;;4.90;4.47;;;31.60;86.00;;;;;;5009560;28;20302;-51
2021/04/17 17:03:21;;;;;;;4.40;4.00;;;31.50;86.00;;;;;;5008267;28;20226;-50
2021/04/17 17:05:52;;;;;;;4.50;3.72;;;31.50;86.10;;;;;;5009415;28;20662;-51
2021/04/17 17:08:24;;;;;;;4.90;4.38;;;31.50;86.40;;;;;;5009491;28;20203;-49
2021/04/17 17:10:55;;;;;;;5.35;4.35;;;31.50;86.50;;;;;;5009331;28;20199;-52
2021/04/17 17:13:25;;;;;;;4.60;4.20;;;31.40;86.60;;;;;;5008893;28;20707;-53
2021/04/17 17:15:56;;;;;;;4.97;4.57;;;31.40;86.70;;;;;;5009092;28;20211;-56
2021/04/17 17:18:26;;;;;;;4.28;3.80;;;31.40;86.90;;;;;;5009469;28;20234;-50
2021/04/17 17:20:56;;;;;;;4.97;4.57;;;31.40;87.00;;;;;;5010058;28;20206;-53
2021/04/17 17:23:26;;;;;;;5.13;4.72;;;31.40;87.10;;;;;;5012799;28;20227;-55
2021/04/17 17:25:57;;;;;;;5.45;4.95;;;31.30;87.10;;;;;;5012119;28;20238;-53
2021/04/17 17:28:28;;;;;;;5.22;4.72;;;31.30;87.20;;;;;;5013040;28;20657;-54
2021/04/17 17:30:58;;;;;;;5.43;4.93;;;31.30;87.20;;;;;;5013182;28;20286;-54
2021/04/17 17:33:29;;;;;;;5.63;4.85;;;31.30;87.40;;;;;;5013043;28;20696;-52
2021/04/17 17:35:59;;;;;;;4.95;4.22;;;31.20;87.40;;;;;;5012553;28;20359;-55
2021/04/17 17:38:29;;;;;;;5.03;4.57;;;31.20;87.60;;;;;;5012892;28;20229;-53
2021/04/17 17:41:01;;;;;;;4.82;4.43;;;31.20;87.80;;;;;;5012935;28;20295;-53
2021/04/17 17:43:31;;;;;;;5.75;4.57;;;31.10;87.90;;;;;;5012852;28;20215;-52
2021/04/17 17:46:22;;;;;;;5.10;4.60;;;31.20;88.10;;;;;;5011826;28;20298;-52
2021/04/17 17:48:53;;;;;;;5.15;4.65;;;31.10;88.10;;;;;;5012736;28;20203;-53
2021/04/17 17:51:23;;;;;;;5.70;4.85;;;31.10;88.20;;;;;;5012723;28;20269;-54
2021/04/17 17:53:54;;;;;;;5.45;4.93;;;31.10;88.40;;;;;;5012830;28;20731;-53
2021/04/17 17:56:26;;;;;;;4.57;4.18;;;31.10;88.50;;;;;;5012584;28;20200;-54
2021/04/17 17:58:56;;;;;;;4.85;4.45;;;31.10;88.60;;;;;;5011939;28;20262;-53
2021/04/17 18:01:26;;;;;;;4.97;4.53;;;31.10;88.60;;;;;;5012610;28;20200;-51
2021/04/17 18:03:56;;;;;;;5.65;5.10;;;31.10;88.70;;;;;;5012879;28;20286;-51
2021/04/17 18:06:26;;;;;;;5.65;5.13;;;31.10;88.70;;;;;;5012928;28;20203;-52
2021/04/17 18:08:57;;;;;;;6.40;5.13;;;31.10;88.70;;;;;;5011766;28;20632;-55
2021/04/17 18:11:28;;;;;;;5.43;4.93;;;31.10;88.70;;;;;;5012317;28;20576;-50
2021/04/17 18:13:59;;;;;;;5.38;4.88;;;31.00;88.80;;;;;;5012299;28;20647;-50
2021/04/17 18:16:29;;;;;;;4.97;4.57;;;31.00;88.80;;;;;;5012403;28;20242;-51
2021/04/17 18:19:00;;;;;;;6.15;4.68;;;31.00;88.90;;;;;;5011747;28;20291;-51
2021/04/17 18:21:30;;;;;;;4.90;4.50;;;31.00;88.90;;;;;;5011929;28;20199;-51
2021/04/17 18:24:00;;;;;;;4.70;4.35;;;31.00;88.90;;;;;;5012213;28;20204;-52
2021/04/17 18:26:31;;;;;;;5.30;4.80;;;31.00;88.90;;;;;;5012015;28;20290;-50
2021/04/17 18:29:02;;;;;;;5.00;4.57;;;31.00;89.00;;;;;;5011920;28;20227;-53
2021/04/17 18:31:32;;;;;;;5.03;4.63;;;30.90;89.00;;;;;;5011418;28;20226;-51
2021/04/17 18:34:06;;;;;;;4.22;3.85;;;30.90;89.10;;;;;;5011997;28;20199;-54
2021/04/17 18:36:36;;;;;;;4.68;4.15;;;30.90;89.20;;;;;;5011964;28;20545;-53
2021/04/17 18:39:07;;;;;;;4.88;4.28;;;30.90;89.30;;;;;;5011922;28;20291;-52
2021/04/17 18:41:38;;;;;;;5.18;4.30;;;30.90;89.40;;;;;;5011282;28;20207;-54
2021/04/17 18:44:09;;;;;;;5.45;4.53;;;30.90;89.50;;;;;;5011733;28;20209;-54
2021/04/17 18:46:39;;;;;;;4.25;3.95;;;30.90;89.60;;;;;;5011688;28;20850;-49
2021/04/17 18:49:10;;;;;;;4.88;4.32;;;30.80;89.70;;;;;;5011783;28;20614;-50
2021/04/17 18:51:40;;;;;;;4.80;4.40;;;30.80;89.80;;;;;;5011855;28;20672;-49
2021/04/17 18:54:11;;;;;;;4.45;4.05;;;30.80;89.90;;;;;;5010830;28;20663;-50
2021/04/17 18:56:42;;;;;;;4.40;4.00;;;30.80;90.00;;;;;;5011759;28;20270;-51
2021/04/17 18:59:13;;;;;;;4.80;3.63;;;30.80;90.00;;;;;;5011579;28;20195;-49